4XDAG LLHA-LLER
Flight info
| Callsign | 4XDAG |
|---|---|
| Flight time | N/A |
| Altitude | 2000 |
| Route | GALIM DAROM HOTRM BOREN FRDIS SDTYM OLGAH PELEG VINGT SFAIM APOLN ARENA HTZUK RIDNG ROKCH PARDS LLBG MRISN NTAIM BOVED NAGID YAVNE ZASHD NMASD ZDAFA NITZA ASKLN GVARM BHAIL BKAMA ZLHAV GORAL NCITY OMMER OHLIM HOVAV NEGEV TLLIM BOKER OVDAT RUHOT MESAR ZZHOR BMNUH YAHEL KTORA YOTVT SAMAR BRORA EILAT BRORA |
| Aircraft | P28R/L-SDE2E3FGHIJ1LORVWXY/LB1 |
Departure
| Time | 2026-04-26 10:37 |
|---|---|
| Airport | Uri Michaeli Haifa International Airport (LLHA) |
Arrival
| Time | N/A |
|---|---|
| Airport | Ramon International Airport (LLER) |
| Time | Latitude | Longitude | Altitude | Speed | Heading |
|---|---|---|---|---|---|
| 2026-04-26 10:23 | 32.81235 | 35.04188 | 20 ft | 0 kts | 250° |
| 2026-04-26 10:30 | 32.81234 | 35.04185 | 20 ft | 4 kts | 245° |
| 2026-04-26 10:30 | 32.81172 | 35.04201 | 20 ft | 14 kts | 160° |
| 2026-04-26 10:30 | 32.81161 | 35.04251 | 20 ft | 8 kts | 68° |
| 2026-04-26 10:30 | 32.81107 | 35.04337 | 20 ft | 24 kts | 158° |
| 2026-04-26 10:31 | 32.80920 | 35.04418 | 22 ft | 33 kts | 159° |
| 2026-04-26 10:31 | 32.80706 | 35.04511 | 20 ft | 28 kts | 160° |
| 2026-04-26 10:31 | 32.80590 | 35.04563 | 18 ft | 14 kts | 162° |
| 2026-04-26 10:31 | 32.80497 | 35.04581 | 15 ft | 11 kts | 182° |
| 2026-04-26 10:32 | 32.80493 | 35.04604 | 15 ft | 0 kts | 6° |
| 2026-04-26 10:32 | 32.80498 | 35.04602 | 15 ft | 0 kts | 332° |
| 2026-04-26 10:33 | 32.80535 | 35.04585 | 16 ft | 23 kts | 340° |
| 2026-04-26 10:34 | 32.80833 | 35.04455 | 20 ft | 63 kts | 340° |
| 2026-04-26 10:34 | 32.81118 | 35.04331 | 20 ft | 63 kts | 339° |
| 2026-04-26 10:34 | 32.81397 | 35.04210 | 23 ft | 24 kts | 336° |
| 2026-04-26 10:34 | 32.81409 | 35.04193 | 23 ft | 7 kts | 140° |
| 2026-04-26 10:35 | 32.81286 | 35.04258 | 23 ft | 31 kts | 159° |
| 2026-04-26 10:35 | 32.81064 | 35.04355 | 20 ft | 33 kts | 159° |
| 2026-04-26 10:35 | 32.80864 | 35.04442 | 21 ft | 29 kts | 160° |
| 2026-04-26 10:35 | 32.80686 | 35.04521 | 20 ft | 25 kts | 159° |
| 2026-04-26 10:36 | 32.80527 | 35.04584 | 16 ft | 20 kts | 162° |
| 2026-04-26 10:36 | 32.80495 | 35.04603 | 15 ft | 5 kts | 355° |
| 2026-04-26 10:36 | 32.80499 | 35.04601 | 15 ft | 0 kts | 340° |
| 2026-04-26 10:36 | 32.80560 | 35.04575 | 17 ft | 30 kts | 340° |
| 2026-04-26 10:37 | 32.80899 | 35.04426 | 22 ft | 71 kts | 340° |
| 2026-04-26 10:37 | 32.81426 | 35.04194 | 120 ft | 84 kts | 337° |
| 2026-04-26 10:37 | 32.81943 | 35.03945 | 458 ft | 74 kts | 337° |
| 2026-04-26 10:37 | 32.82397 | 35.03689 | 743 ft | 76 kts | 327° |
| 2026-04-26 10:38 | 32.82880 | 35.03390 | 1068 ft | 83 kts | 329° |
| 2026-04-26 10:38 | 32.83252 | 35.02839 | 1444 ft | 82 kts | 291° |
| 2026-04-26 10:38 | 32.83335 | 35.02164 | 1631 ft | 86 kts | 270° |
| 2026-04-26 10:38 | 32.83364 | 35.01451 | 1814 ft | 85 kts | 273° |
| 2026-04-26 10:39 | 32.83468 | 35.00767 | 2012 ft | 85 kts | 276° |
| 2026-04-26 10:39 | 32.83536 | 35.00027 | 2020 ft | 94 kts | 271° |
| 2026-04-26 10:39 | 32.83537 | 34.99236 | 2011 ft | 99 kts | 265° |
| 2026-04-26 10:39 | 32.83525 | 34.98412 | 2073 ft | 99 kts | 271° |
| 2026-04-26 10:40 | 32.83618 | 34.97513 | 1975 ft | 117 kts | 275° |
| 2026-04-26 10:40 | 32.83589 | 34.96576 | 2002 ft | 110 kts | 258° |
| 2026-04-26 10:40 | 32.83291 | 34.95739 | 2005 ft | 110 kts | 239° |
| 2026-04-26 10:40 | 32.82795 | 34.95102 | 2062 ft | 109 kts | 217° |
| 2026-04-26 10:41 | 32.82057 | 34.94754 | 1987 ft | 118 kts | 190° |
| 2026-04-26 10:41 | 32.81269 | 34.94624 | 2017 ft | 115 kts | 183° |
| 2026-04-26 10:41 | 32.80462 | 34.94595 | 2020 ft | 115 kts | 179° |
| 2026-04-26 10:41 | 32.79685 | 34.94626 | 2051 ft | 113 kts | 179° |
| 2026-04-26 10:42 | 32.78895 | 34.94611 | 2019 ft | 115 kts | 178° |
| 2026-04-26 10:42 | 32.78088 | 34.94561 | 2009 ft | 117 kts | 184° |
| 2026-04-26 10:42 | 32.77510 | 34.94522 | 2008 ft | 118 kts | 179° |
| 2026-04-26 10:43 | 32.76688 | 34.94530 | 1999 ft | 119 kts | 178° |
| 2026-04-26 10:43 | 32.75891 | 34.94411 | 2088 ft | 111 kts | 186° |
| 2026-04-26 10:43 | 32.75106 | 34.94317 | 2039 ft | 118 kts | 181° |
| 2026-04-26 10:43 | 32.74295 | 34.94162 | 2010 ft | 119 kts | 190° |
| 2026-04-26 10:44 | 32.73560 | 34.93746 | 2009 ft | 117 kts | 211° |
| 2026-04-26 10:44 | 32.72874 | 34.93249 | 2017 ft | 117 kts | 213° |
| 2026-04-26 10:44 | 32.72196 | 34.92695 | 1944 ft | 123 kts | 219° |
| 2026-04-26 10:44 | 32.71503 | 34.92077 | 1964 ft | 119 kts | 217° |
| 2026-04-26 10:45 | 32.70881 | 34.91442 | 1958 ft | 120 kts | 224° |
| 2026-04-26 10:45 | 32.70178 | 34.90911 | 1937 ft | 120 kts | 208° |
| 2026-04-26 10:45 | 32.69460 | 34.90448 | 1995 ft | 116 kts | 212° |
| 2026-04-26 10:45 | 32.68802 | 34.90022 | 2056 ft | 112 kts | 210° |
| 2026-04-26 10:46 | 32.68055 | 34.89655 | 1983 ft | 121 kts | 202° |
| 2026-04-26 10:46 | 32.67236 | 34.89407 | 1987 ft | 121 kts | 197° |
| 2026-04-26 10:46 | 32.66432 | 34.89140 | 2003 ft | 121 kts | 198° |
| 2026-04-26 10:46 | 32.65589 | 34.88979 | 1990 ft | 123 kts | 188° |
| 2026-04-26 10:47 | 32.64740 | 34.88907 | 2015 ft | 122 kts | 187° |
| 2026-04-26 10:47 | 32.63891 | 34.88841 | 2004 ft | 123 kts | 183° |
| 2026-04-26 10:47 | 32.63035 | 34.88864 | 1984 ft | 125 kts | 180° |
| 2026-04-26 10:47 | 32.62165 | 34.88941 | 1873 ft | 127 kts | 178° |
| 2026-04-26 10:48 | 32.61272 | 34.89047 | 1753 ft | 130 kts | 176° |
| 2026-04-26 10:48 | 32.60384 | 34.89178 | 1656 ft | 130 kts | 176° |
| 2026-04-26 10:48 | 32.59455 | 34.89275 | 1449 ft | 138 kts | 178° |
| 2026-04-26 10:48 | 32.58501 | 34.89343 | 1289 ft | 139 kts | 181° |
| 2026-04-26 10:49 | 32.57537 | 34.89361 | 1170 ft | 137 kts | 183° |
| 2026-04-26 10:49 | 32.56594 | 34.89363 | 1077 ft | 135 kts | 185° |
| 2026-04-26 10:49 | 32.55643 | 34.89386 | 918 ft | 138 kts | 182° |
| 2026-04-26 10:49 | 32.54691 | 34.89385 | 762 ft | 136 kts | 186° |
| 2026-04-26 10:50 | 32.53783 | 34.89323 | 790 ft | 129 kts | 191° |
| 2026-04-26 10:50 | 32.53203 | 34.89243 | 814 ft | 126 kts | 192° |
| 2026-04-26 10:50 | 32.52051 | 34.88985 | 798 ft | 125 kts | 198° |
| 2026-04-26 10:50 | 32.51198 | 34.88763 | 780 ft | 127 kts | 198° |
| 2026-04-26 10:51 | 32.50384 | 34.88452 | 730 ft | 127 kts | 205° |
| 2026-04-26 10:51 | 32.48845 | 34.87551 | 796 ft | 124 kts | 212° |
| 2026-04-26 10:51 | 32.48062 | 34.87113 | 802 ft | 125 kts | 208° |
| 2026-04-26 10:52 | 32.47255 | 34.86741 | 845 ft | 125 kts | 204° |
| 2026-04-26 10:52 | 32.46407 | 34.86486 | 828 ft | 127 kts | 194° |
| 2026-04-26 10:52 | 32.45510 | 34.86401 | 835 ft | 130 kts | 186° |
| 2026-04-26 10:52 | 32.44603 | 34.86440 | 789 ft | 134 kts | 181° |
| 2026-04-26 10:53 | 32.43690 | 34.86440 | 815 ft | 128 kts | 188° |
| 2026-04-26 10:53 | 32.42817 | 34.86396 | 827 ft | 127 kts | 187° |
| 2026-04-26 10:53 | 32.41926 | 34.86362 | 816 ft | 128 kts | 187° |
| 2026-04-26 10:54 | 32.40184 | 34.86094 | 748 ft | 128 kts | 194° |
| 2026-04-26 10:54 | 32.39321 | 34.85886 | 792 ft | 121 kts | 197° |
| 2026-04-26 10:54 | 32.38500 | 34.85668 | 824 ft | 121 kts | 198° |
| 2026-04-26 10:54 | 32.37673 | 34.85455 | 801 ft | 122 kts | 195° |
| 2026-04-26 10:55 | 32.36848 | 34.85274 | 800 ft | 121 kts | 194° |
| 2026-04-26 10:55 | 32.36014 | 34.85065 | 713 ft | 125 kts | 197° |
| 2026-04-26 10:55 | 32.35193 | 34.84876 | 791 ft | 118 kts | 194° |
| 2026-04-26 10:55 | 32.34378 | 34.84719 | 874 ft | 116 kts | 195° |
| 2026-04-26 10:56 | 32.33559 | 34.84536 | 800 ft | 122 kts | 195° |
| 2026-04-26 10:56 | 32.32735 | 34.84329 | 783 ft | 121 kts | 198° |
| 2026-04-26 10:56 | 32.31944 | 34.84074 | 827 ft | 114 kts | 201° |
| 2026-04-26 10:56 | 32.31199 | 34.83817 | 896 ft | 112 kts | 201° |
| 2026-04-26 10:57 | 32.30407 | 34.83556 | 824 ft | 122 kts | 199° |
| 2026-04-26 10:57 | 32.29587 | 34.83281 | 801 ft | 124 kts | 201° |
| 2026-04-26 10:57 | 32.28763 | 34.82972 | 812 ft | 121 kts | 203° |
| 2026-04-26 10:57 | 32.27950 | 34.82729 | 810 ft | 120 kts | 197° |
| 2026-04-26 10:58 | 32.27158 | 34.82481 | 785 ft | 118 kts | 201° |
| 2026-04-26 10:58 | 32.26374 | 34.82202 | 824 ft | 116 kts | 202° |
| 2026-04-26 10:58 | 32.25571 | 34.81976 | 819 ft | 122 kts | 194° |
| 2026-04-26 10:58 | 32.24745 | 34.81742 | 814 ft | 122 kts | 199° |
| 2026-04-26 10:59 | 32.23930 | 34.81479 | 812 ft | 120 kts | 201° |
| 2026-04-26 10:59 | 32.23134 | 34.81193 | 799 ft | 120 kts | 201° |
| 2026-04-26 10:59 | 32.22336 | 34.80915 | 803 ft | 121 kts | 200° |
| 2026-04-26 10:59 | 32.21510 | 34.80645 | 802 ft | 122 kts | 201° |
| 2026-04-26 11:00 | 32.20703 | 34.80348 | 793 ft | 121 kts | 202° |
| 2026-04-26 11:00 | 32.19889 | 34.80073 | 781 ft | 127 kts | 202° |
| 2026-04-26 11:00 | 32.19062 | 34.79775 | 820 ft | 119 kts | 201° |
| 2026-04-26 11:00 | 32.18268 | 34.79493 | 773 ft | 121 kts | 201° |
| 2026-04-26 11:01 | 32.17474 | 34.79190 | 761 ft | 118 kts | 203° |
| 2026-04-26 11:01 | 32.16719 | 34.78887 | 809 ft | 112 kts | 203° |
| 2026-04-26 11:01 | 32.15967 | 34.78595 | 763 ft | 115 kts | 202° |
| 2026-04-26 11:01 | 32.15203 | 34.78372 | 831 ft | 112 kts | 200° |
| 2026-04-26 11:02 | 32.14481 | 34.78227 | 841 ft | 105 kts | 178° |
| 2026-04-26 11:02 | 32.13714 | 34.78188 | 804 ft | 113 kts | 198° |
| 2026-04-26 11:02 | 32.12963 | 34.77886 | 830 ft | 117 kts | 206° |
| 2026-04-26 11:02 | 32.12209 | 34.77511 | 797 ft | 118 kts | 209° |
| 2026-04-26 11:03 | 32.11473 | 34.77250 | 1035 ft | 104 kts | 188° |
| 2026-04-26 11:03 | 32.10843 | 34.77596 | 1230 ft | 106 kts | 135° |
| 2026-04-26 11:03 | 32.10603 | 34.78520 | 1219 ft | 129 kts | 99° |
| 2026-04-26 11:03 | 32.10511 | 34.79596 | 1258 ft | 133 kts | 97° |
| 2026-04-26 11:04 | 32.10519 | 34.80715 | 1264 ft | 137 kts | 91° |
| 2026-04-26 11:04 | 32.10518 | 34.81891 | 1197 ft | 146 kts | 94° |
| 2026-04-26 11:04 | 32.10456 | 34.83070 | 1151 ft | 146 kts | 96° |
| 2026-04-26 11:04 | 32.10246 | 34.84190 | 1225 ft | 130 kts | 111° |
| 2026-04-26 11:05 | 32.09694 | 34.85004 | 1235 ft | 131 kts | 152° |
| 2026-04-26 11:05 | 32.08822 | 34.85201 | 1165 ft | 130 kts | 193° |
| 2026-04-26 11:05 | 32.07960 | 34.85054 | 1222 ft | 124 kts | 190° |
| 2026-04-26 11:05 | 32.07080 | 34.85059 | 1182 ft | 127 kts | 181° |
| 2026-04-26 11:06 | 32.06233 | 34.85165 | 1176 ft | 120 kts | 179° |
| 2026-04-26 11:06 | 32.05686 | 34.85251 | 1139 ft | 122 kts | 177° |
| 2026-04-26 11:06 | 32.04606 | 34.85359 | 1198 ft | 116 kts | 173° |
| 2026-04-26 11:06 | 32.04006 | 34.85970 | 1259 ft | 118 kts | 128° |
| 2026-04-26 11:07 | 32.03588 | 34.86825 | 1230 ft | 122 kts | 121° |
| 2026-04-26 11:07 | 32.03258 | 34.87706 | 1311 ft | 112 kts | 109° |
| 2026-04-26 11:07 | 32.03423 | 34.88564 | 1187 ft | 110 kts | 54° |
| 2026-04-26 11:07 | 32.03715 | 34.89304 | 1196 ft | 91 kts | 79° |
| 2026-04-26 11:08 | 32.03802 | 34.90011 | 1238 ft | 90 kts | 83° |
| 2026-04-26 11:08 | 32.03763 | 34.90766 | 1204 ft | 91 kts | 102° |
| 2026-04-26 11:08 | 32.03644 | 34.91458 | 1189 ft | 87 kts | 107° |
| 2026-04-26 11:08 | 32.03575 | 34.92216 | 1204 ft | 97 kts | 94° |
| 2026-04-26 11:09 | 32.03486 | 34.92993 | 1207 ft | 93 kts | 102° |
| 2026-04-26 11:09 | 32.03411 | 34.93748 | 1469 ft | 91 kts | 95° |
| 2026-04-26 11:09 | 32.03377 | 34.94528 | 1303 ft | 97 kts | 101° |
| 2026-04-26 11:09 | 32.03078 | 34.95182 | 1211 ft | 95 kts | 147° |
| 2026-04-26 11:10 | 32.02474 | 34.95481 | 1280 ft | 94 kts | 179° |
| 2026-04-26 11:10 | 32.01809 | 34.95473 | 1241 ft | 98 kts | 193° |
| 2026-04-26 11:10 | 32.01115 | 34.95333 | 1350 ft | 99 kts | 197° |
| 2026-04-26 11:10 | 32.00546 | 34.95167 | 1439 ft | 75 kts | 205° |
| 2026-04-26 11:11 | 31.99990 | 34.95054 | 1244 ft | 85 kts | 197° |
| 2026-04-26 11:11 | 31.99380 | 34.94888 | 1186 ft | 93 kts | 202° |
| 2026-04-26 11:11 | 31.98803 | 34.94595 | 1144 ft | 81 kts | 211° |
| 2026-04-26 11:11 | 31.98379 | 34.94263 | 1063 ft | 70 kts | 220° |
| 2026-04-26 11:12 | 31.98141 | 34.93757 | 942 ft | 74 kts | 252° |
| 2026-04-26 11:12 | 31.98142 | 34.93166 | 874 ft | 73 kts | 270° |
| 2026-04-26 11:12 | 31.98364 | 34.92619 | 748 ft | 78 kts | 290° |
| 2026-04-26 11:12 | 31.98643 | 34.92076 | 713 ft | 72 kts | 290° |
| 2026-04-26 11:13 | 31.98886 | 34.91572 | 604 ft | 71 kts | 288° |
| 2026-04-26 11:13 | 31.99139 | 34.91078 | 457 ft | 68 kts | 295° |
| 2026-04-26 11:13 | 31.99384 | 34.90625 | 357 ft | 63 kts | 291° |
| 2026-04-26 11:13 | 31.99608 | 34.90192 | 285 ft | 62 kts | 288° |
| 2026-04-26 11:14 | 31.99748 | 34.89815 | 419 ft | 50 kts | 272° |
| 2026-04-26 11:14 | 31.99723 | 34.89425 | 519 ft | 58 kts | 220° |
| 2026-04-26 11:14 | 31.99308 | 34.89207 | 661 ft | 74 kts | 200° |
| 2026-04-26 11:14 | 31.98941 | 34.89093 | 775 ft | 84 kts | 203° |
| 2026-04-26 11:15 | 31.98202 | 34.89554 | 1069 ft | 106 kts | 132° |
| 2026-04-26 11:15 | 31.97821 | 34.90261 | 1188 ft | 101 kts | 121° |
| 2026-04-26 11:15 | 31.97962 | 34.91143 | 1085 ft | 123 kts | 62° |
| 2026-04-26 11:15 | 31.98575 | 34.91855 | 815 ft | 126 kts | 14° |
| 2026-04-26 11:16 | 31.99231 | 34.91486 | 693 ft | 100 kts | 291° |
| 2026-04-26 11:16 | 31.99376 | 34.90807 | 561 ft | 79 kts | 283° |
| 2026-04-26 11:16 | 31.99540 | 34.90406 | 410 ft | 81 kts | 290° |
| 2026-04-26 11:16 | 31.99797 | 34.89845 | 252 ft | 72 kts | 291° |
| 2026-04-26 11:17 | 32.00023 | 34.89383 | 128 ft | 57 kts | 287° |
| 2026-04-26 11:17 | 32.00196 | 34.89033 | 113 ft | 35 kts | 307° |
| 2026-04-26 11:17 | 32.00333 | 34.89074 | 113 ft | 27 kts | 27° |
| 2026-04-26 11:17 | 32.00619 | 34.89250 | 113 ft | 56 kts | 28° |
| 2026-04-26 11:18 | 32.00915 | 34.89449 | 116 ft | 33 kts | 45° |
| 2026-04-26 11:18 | 32.00885 | 34.89624 | 113 ft | 17 kts | 122° |
| 2026-04-26 11:18 | 32.00868 | 34.89790 | 113 ft | 19 kts | 5° |
| 2026-04-26 11:18 | 32.00912 | 34.89751 | 113 ft | 0 kts | 299° |